createdAt,value
2018-08-13T00:00:25.029Z,25.50
2018-08-13T00:01:24.826Z,24.00
2018-08-13T00:02:24.968Z,23.00
2018-08-13T00:03:24.869Z,25.20
2018-08-13T00:04:25.063Z,28.30
2018-08-13T00:05:24.848Z,24.70
2018-08-13T00:06:24.854Z,25.50
2018-08-13T00:07:24.988Z,27.80
2018-08-13T00:08:24.895Z,27.20
2018-08-13T00:09:24.903Z,23.30
2018-08-13T00:10:25.324Z,23.80
2018-08-13T00:11:24.915Z,20.80
2018-08-13T00:12:25.026Z,21.70
2018-08-13T00:13:24.943Z,18.40
2018-08-13T00:14:25.156Z,20.10
2018-08-13T00:15:24.968Z,22.20
2018-08-13T00:16:24.980Z,20.80
2018-08-13T00:17:25.138Z,16.90
2018-08-13T00:18:25.204Z,17.00
2018-08-13T00:19:25.017Z,18.70
2018-08-13T00:20:25.222Z,17.70
2018-08-13T00:21:25.036Z,18.60
2018-08-13T00:22:25.189Z,20.10
2018-08-13T00:23:25.249Z,20.70
2018-08-13T00:24:25.062Z,19.90
2018-08-13T00:25:25.069Z,21.50
2018-08-13T00:26:25.078Z,18.30
2018-08-13T00:27:25.338Z,18.70
2018-08-13T00:28:25.100Z,17.90
2018-08-13T00:29:25.721Z,17.40
2018-08-13T00:30:25.321Z,17.60
2018-08-13T00:31:25.737Z,18.90
2018-08-13T00:32:25.135Z,18.70
2018-08-13T00:33:25.306Z,18.30
2018-08-13T00:34:25.156Z,19.90
2018-08-13T00:35:25.175Z,18.30
2018-08-13T00:36:25.180Z,18.70
2018-08-13T00:37:25.185Z,16.60
2018-08-13T00:38:25.350Z,18.80
2018-08-13T00:39:25.214Z,17.20
2018-08-13T00:40:25.219Z,17.00
2018-08-13T00:41:25.232Z,18.60
2018-08-13T00:42:25.220Z,19.00
2018-08-13T00:43:25.554Z,18.90
2018-08-13T00:44:25.331Z,18.70
2018-08-13T00:45:25.272Z,17.70
2018-08-13T00:46:25.287Z,17.90
2018-08-13T00:47:25.290Z,18.40
2018-08-13T00:48:25.300Z,18.70
2018-08-13T00:49:25.761Z,18.80
2018-08-13T00:50:25.324Z,18.90
2018-08-13T00:51:25.331Z,19.70
2018-08-13T00:52:25.343Z,20.20
2018-08-13T00:53:25.329Z,21.90
2018-08-13T00:54:25.517Z,20.40
2018-08-13T00:55:25.371Z,20.80
2018-08-13T00:56:25.387Z,21.60
2018-08-13T00:57:25.594Z,20.80
2018-08-13T00:58:25.396Z,19.80
2018-08-13T00:59:25.559Z,20.50
2018-08-13T01:00:25.419Z,20.40
2018-08-13T01:01:25.428Z,21.40
2018-08-13T01:02:25.440Z,20.30
2018-08-13T01:03:25.446Z,19.80
2018-08-13T01:04:25.608Z,20.90
2018-08-13T01:05:25.451Z,21.50
2018-08-13T01:06:25.680Z,19.70
2018-08-13T01:07:25.486Z,18.70
2018-08-13T01:08:25.501Z,20.00
2018-08-13T01:09:25.642Z,20.00
2018-08-13T01:10:25.519Z,20.40
2018-08-13T01:11:25.531Z,20.00
2018-08-13T01:12:25.542Z,22.40
2018-08-13T01:13:25.752Z,22.40
2018-08-13T01:14:25.708Z,21.60
2018-08-13T01:15:25.565Z,20.50
2018-08-13T01:16:25.560Z,22.20
2018-08-13T01:17:25.789Z,21.10
2018-08-13T01:18:25.577Z,19.40
2018-08-13T01:19:25.754Z,22.50
2018-08-13T01:20:25.628Z,23.00
2018-08-13T01:21:25.623Z,24.20
2018-08-13T01:22:25.639Z,24.80
2018-08-13T01:23:25.643Z,23.10
2018-08-13T01:24:25.808Z,19.70
2018-08-13T01:25:25.666Z,22.30
2018-08-13T01:26:25.677Z,17.60
2018-08-13T01:27:25.683Z,21.60
2018-08-13T01:28:25.699Z,19.20
2018-08-13T01:29:25.863Z,23.00
2018-08-13T01:30:25.719Z,19.30
2018-08-13T01:31:25.705Z,19.20
2018-08-13T01:32:25.740Z,19.40
2018-08-13T01:33:25.749Z,20.20
2018-08-13T01:34:25.902Z,18.30
2018-08-13T01:35:25.768Z,24.00
2018-08-13T01:36:25.778Z,29.70
2018-08-13T01:37:25.788Z,33.60
2018-08-13T01:38:25.793Z,26.80
2018-08-13T01:39:25.957Z,26.20
2018-08-13T01:40:25.811Z,27.10
2018-08-13T01:41:25.823Z,30.20
2018-08-13T01:42:25.815Z,28.70
2018-08-13T01:43:25.849Z,36.20
2018-08-13T01:44:26.009Z,25.40
2018-08-13T01:45:25.863Z,26.50
2018-08-13T01:46:25.877Z,26.60
2018-08-13T01:47:25.882Z,34.50
2018-08-13T01:48:25.893Z,31.10
2018-08-13T01:49:26.055Z,27.10
2018-08-13T01:50:25.913Z,33.80
2018-08-13T01:51:25.931Z,37.70
2018-08-13T01:52:25.931Z,25.00
2018-08-13T01:53:25.942Z,20.80
2018-08-13T01:54:26.102Z,18.10
2018-08-13T01:55:25.965Z,16.40
2018-08-13T01:56:25.971Z,14.70
2018-08-13T01:57:25.979Z,13.50
2018-08-13T01:58:25.997Z,15.70
2018-08-13T01:59:26.351Z,15.90
2018-08-13T02:00:26.016Z,14.00
2018-08-13T02:01:26.046Z,12.90
2018-08-13T02:02:26.031Z,12.50
2018-08-13T02:03:26.036Z,11.50
2018-08-13T02:04:26.055Z,12.50
2018-08-13T02:05:26.212Z,13.40
2018-08-13T02:06:26.049Z,13.20
2018-08-13T02:07:26.081Z,13.40
2018-08-13T02:08:26.100Z,13.30
2018-08-13T02:09:26.082Z,10.90
2018-08-13T02:10:26.261Z,11.80
2018-08-13T02:11:26.119Z,11.80
2018-08-13T02:12:26.117Z,12.30
2018-08-13T02:13:26.136Z,13.30
2018-08-13T02:14:26.153Z,13.10
2018-08-13T02:15:26.315Z,16.60
2018-08-13T02:16:26.175Z,12.70
2018-08-13T02:17:26.177Z,13.90
2018-08-13T02:18:26.195Z,13.00
2018-08-13T02:19:26.201Z,13.40
2018-08-13T02:20:26.201Z,14.50
2018-08-13T02:21:26.327Z,14.00
2018-08-13T02:22:26.233Z,12.30
2018-08-13T02:23:26.241Z,11.60
2018-08-13T02:24:26.258Z,15.10
2018-08-13T02:25:26.241Z,11.50
2018-08-13T02:26:26.272Z,14.30
2018-08-13T02:27:26.434Z,16.60
2018-08-13T02:28:26.293Z,14.50
2018-08-13T02:29:26.303Z,14.60
2018-08-13T02:30:26.316Z,10.50
2018-08-13T02:31:26.325Z,13.30
2018-08-13T02:32:26.484Z,13.10
2018-08-13T02:33:26.340Z,16.90
2018-08-13T02:34:26.351Z,15.60
2018-08-13T02:35:26.341Z,13.50
2018-08-13T02:36:26.362Z,14.50
2018-08-13T02:37:26.536Z,14.50
2018-08-13T02:38:26.398Z,9.30
2018-08-13T02:39:26.459Z,7.70
2018-08-13T02:40:26.423Z,9.20
2018-08-13T02:41:26.422Z,11.50
2018-08-13T02:42:26.688Z,13.40
2018-08-13T02:43:26.432Z,12.50
2018-08-13T02:44:26.448Z,9.90
2018-08-13T02:45:26.463Z,12.20
2018-08-13T02:46:26.481Z,11.30
2018-08-13T02:47:26.638Z,10.70
2018-08-13T02:48:26.501Z,12.90
2018-08-13T02:49:26.505Z,13.50
2018-08-13T02:50:26.516Z,9.80
2018-08-13T02:51:27.122Z,10.10
2018-08-13T02:52:26.892Z,9.60
2018-08-13T02:53:26.752Z,8.10
2018-08-13T02:54:26.562Z,10.30
2018-08-13T02:55:26.756Z,10.40
2018-08-13T02:56:26.590Z,8.60
2018-08-13T02:57:26.739Z,8.00
2018-08-13T02:58:26.603Z,6.70
2018-08-13T02:59:26.625Z,13.60
2018-08-13T03:00:26.626Z,12.80
2018-08-13T03:01:26.839Z,7.20
2018-08-13T03:02:26.791Z,14.30
2018-08-13T03:03:26.650Z,8.70
2018-08-13T03:04:26.683Z,10.50
2018-08-13T03:05:26.879Z,14.40
2018-08-13T03:06:26.684Z,15.70
2018-08-13T03:07:26.844Z,12.70
2018-08-13T03:08:26.705Z,8.00
2018-08-13T03:09:26.711Z,16.10
2018-08-13T03:10:26.703Z,18.60
2018-08-13T03:11:26.732Z,21.60
2018-08-13T03:12:27.319Z,18.20
2018-08-13T03:13:26.940Z,14.60
2018-08-13T03:14:26.772Z,14.10
2018-08-13T03:15:26.780Z,10.10
2018-08-13T03:16:26.792Z,7.00
2018-08-13T03:17:27.197Z,11.40
2018-08-13T03:18:26.955Z,6.30
2018-08-13T03:19:26.797Z,7.10
2018-08-13T03:20:26.831Z,7.80
2018-08-13T03:21:27.041Z,7.40
2018-08-13T03:22:27.050Z,6.80
2018-08-13T03:23:27.005Z,8.70
2018-08-13T03:24:26.868Z,14.60
2018-08-13T03:25:27.080Z,12.30
2018-08-13T03:26:27.093Z,7.90
2018-08-13T03:27:26.899Z,7.70
2018-08-13T03:28:27.261Z,11.90
2018-08-13T03:29:26.917Z,13.90
2018-08-13T03:30:26.931Z,13.30
2018-08-13T03:31:26.924Z,18.40
2018-08-13T03:32:26.969Z,12.70
2018-08-13T03:33:27.119Z,15.80
2018-08-13T03:34:26.952Z,23.80
2018-08-13T03:35:26.982Z,21.90
2018-08-13T03:36:26.992Z,22.70
2018-08-13T03:37:27.006Z,22.00
2018-08-13T03:38:27.159Z,16.70
2018-08-13T03:39:27.021Z,24.70
2018-08-13T03:40:27.031Z,17.40
2018-08-13T03:41:27.042Z,23.40
2018-08-13T03:42:27.027Z,18.90
2018-08-13T03:43:27.212Z,21.60
2018-08-13T03:44:27.073Z,19.70
2018-08-13T03:45:27.072Z,27.30
2018-08-13T03:46:27.087Z,17.40
2018-08-13T03:47:27.093Z,19.90
2018-08-13T03:48:27.260Z,19.90
2018-08-13T03:49:27.129Z,18.80
2018-08-13T03:50:27.125Z,17.70
2018-08-13T03:51:27.131Z,16.80
2018-08-13T03:52:27.144Z,16.20
2018-08-13T03:53:27.410Z,12.20
2018-08-13T03:54:27.172Z,15.00
2018-08-13T03:55:27.179Z,18.40
2018-08-13T03:56:27.183Z,14.30
2018-08-13T03:57:27.196Z,14.30
2018-08-13T03:58:27.199Z,21.00
2018-08-13T03:59:27.362Z,16.70
2018-08-13T04:00:27.224Z,17.00
2018-08-13T04:01:27.238Z,21.10
2018-08-13T04:02:27.220Z,23.00
2018-08-13T04:03:27.249Z,24.60
2018-08-13T04:04:27.259Z,27.10
2018-08-13T04:05:27.422Z,28.60
2018-08-13T04:06:27.259Z,25.50
2018-08-13T04:07:27.287Z,25.90
2018-08-13T04:08:27.302Z,29.90
2018-08-13T04:09:27.305Z,22.60
2018-08-13T04:10:27.468Z,28.60
2018-08-13T04:11:27.340Z,26.40
2018-08-13T04:12:27.337Z,20.90
2018-08-13T04:13:27.330Z,23.00
2018-08-13T04:14:27.365Z,29.50
2018-08-13T04:15:27.522Z,18.70
2018-08-13T04:16:27.379Z,18.00
2018-08-13T04:17:27.369Z,24.30
2018-08-13T04:18:27.402Z,20.00
2018-08-13T04:19:27.414Z,38.20
2018-08-13T04:20:27.575Z,21.00
2018-08-13T04:21:27.406Z,18.60
2018-08-13T04:22:27.438Z,20.70
2018-08-13T04:23:27.452Z,26.40
2018-08-13T04:24:27.468Z,19.80
2018-08-13T04:25:27.626Z,23.90
2018-08-13T04:26:27.456Z,23.20
2018-08-13T04:27:27.482Z,20.20
2018-08-13T04:28:27.495Z,27.80
2018-08-13T04:29:27.505Z,23.40
2018-08-13T04:30:27.658Z,17.50
2018-08-13T04:31:27.724Z,19.90
2018-08-13T04:32:27.734Z,18.50
2018-08-13T04:33:27.535Z,11.90
2018-08-13T04:34:27.726Z,13.50
2018-08-13T04:35:27.712Z,13.10
2018-08-13T04:36:27.568Z,18.80
2018-08-13T04:37:27.560Z,16.00
2018-08-13T04:38:27.568Z,22.70
2018-08-13T04:39:27.596Z,15.80
2018-08-13T04:40:27.762Z,17.30
2018-08-13T04:41:27.617Z,22.50
2018-08-13T04:42:27.628Z,23.30
2018-08-13T04:43:27.632Z,25.80
2018-08-13T04:44:27.645Z,21.80
2018-08-13T04:45:27.810Z,23.30
2018-08-13T04:46:27.660Z,18.80
2018-08-13T04:47:27.677Z,19.60
2018-08-13T04:48:27.681Z,25.80
2018-08-13T04:49:27.690Z,23.30
2018-08-13T04:50:27.857Z,21.70
2018-08-13T04:51:27.704Z,28.30
2018-08-13T04:52:27.718Z,21.40
2018-08-13T04:53:27.728Z,18.20
2018-08-13T04:54:27.734Z,16.60
2018-08-13T04:55:27.878Z,20.10
2018-08-13T04:56:27.762Z,23.00
2018-08-13T04:57:27.970Z,28.40
2018-08-13T04:58:27.772Z,22.90
2018-08-13T04:59:27.782Z,24.80
2018-08-13T05:00:28.044Z,32.80
2018-08-13T05:01:28.009Z,42.50
2018-08-13T05:02:27.820Z,38.10
2018-08-13T05:03:28.027Z,47.00
2018-08-13T05:04:27.834Z,30.50
2018-08-13T05:05:27.968Z,20.10
2018-08-13T05:06:27.855Z,22.30
2018-08-13T05:07:27.925Z,21.70
2018-08-13T05:08:27.867Z,20.90
2018-08-13T05:09:28.082Z,19.50
2018-08-13T05:10:28.442Z,21.80
2018-08-13T05:11:27.899Z,22.90
2018-08-13T05:12:27.906Z,23.00
2018-08-13T05:13:27.909Z,22.40
2018-08-13T05:14:27.931Z,15.80
2018-08-13T05:15:28.181Z,17.60
2018-08-13T05:16:27.941Z,21.00
2018-08-13T05:17:27.951Z,16.80
2018-08-13T05:18:27.963Z,17.30
2018-08-13T05:19:27.973Z,17.00
2018-08-13T05:20:28.232Z,19.10
2018-08-13T05:21:27.975Z,15.30
2018-08-13T05:22:28.000Z,19.50
2018-08-13T05:23:28.003Z,17.80
2018-08-13T05:24:28.011Z,19.50
2018-08-13T05:25:28.276Z,25.40
2018-08-13T05:26:28.031Z,21.20
2018-08-13T05:27:28.042Z,21.40
2018-08-13T05:28:28.055Z,22.80
2018-08-13T05:29:28.061Z,18.40
2018-08-13T05:30:28.132Z,23.20
2018-08-13T05:31:28.433Z,21.20
2018-08-13T05:32:28.292Z,28.10
2018-08-13T05:33:28.097Z,27.90
2018-08-13T05:34:28.106Z,34.70
2018-08-13T05:35:28.122Z,25.70
2018-08-13T05:36:28.125Z,24.30
2018-08-13T05:37:28.286Z,32.80
2018-08-13T05:38:28.148Z,18.30
2018-08-13T05:39:28.153Z,22.60
2018-08-13T05:40:28.150Z,26.30
2018-08-13T05:41:28.166Z,26.50
2018-08-13T05:42:28.184Z,30.90
2018-08-13T05:43:28.339Z,43.90
2018-08-13T05:44:28.204Z,48.70
2018-08-13T05:45:28.192Z,43.30
2018-08-13T05:46:28.219Z,31.00
2018-08-13T05:47:28.225Z,35.30
2018-08-13T05:48:28.238Z,24.10
2018-08-13T05:49:28.393Z,22.90
2018-08-13T05:50:28.256Z,30.30
2018-08-13T05:51:28.262Z,22.70
2018-08-13T05:52:28.281Z,24.80
2018-08-13T05:53:28.285Z,22.60
2018-08-13T05:54:28.440Z,20.50
2018-08-13T05:55:28.308Z,21.60
2018-08-13T05:56:28.309Z,21.00
2018-08-13T05:57:28.316Z,28.70
2018-08-13T05:58:28.337Z,28.90
2018-08-13T05:59:28.492Z,23.50
2018-08-13T06:00:28.348Z,25.20
2018-08-13T06:01:28.357Z,24.30
2018-08-13T06:02:28.365Z,28.90
2018-08-13T06:03:28.573Z,19.40
2018-08-13T06:04:28.540Z,20.20
2018-08-13T06:05:28.577Z,18.60
2018-08-13T06:06:28.404Z,19.50
2018-08-13T06:07:28.407Z,22.00
2018-08-13T06:08:28.417Z,20.60
2018-08-13T06:09:29.180Z,19.50
2018-08-13T06:10:28.438Z,20.20
2018-08-13T06:11:28.436Z,23.10
2018-08-13T06:12:28.454Z,26.50
2018-08-13T06:13:28.665Z,25.00
2018-08-13T06:14:28.629Z,26.30
2018-08-13T06:15:28.482Z,29.00
2018-08-13T06:16:28.492Z,32.50
2018-08-13T06:17:28.503Z,30.70
2018-08-13T06:18:28.509Z,31.90
2018-08-13T06:19:28.667Z,30.10
2018-08-13T06:20:28.526Z,45.30
2018-08-13T06:21:28.534Z,38.50
2018-08-13T06:22:28.555Z,32.70
2018-08-13T06:23:28.564Z,29.70
2018-08-13T06:24:28.717Z,23.50
2018-08-13T06:25:28.575Z,27.80
2018-08-13T06:26:28.579Z,26.70
2018-08-13T06:27:28.578Z,24.80
2018-08-13T06:28:28.599Z,20.40
2018-08-13T06:29:28.858Z,23.10
2018-08-13T06:30:28.601Z,19.70
2018-08-13T06:31:28.629Z,19.50
2018-08-13T06:32:28.619Z,18.60
2018-08-13T06:33:28.643Z,24.30
2018-08-13T06:34:28.806Z,22.40
2018-08-13T06:35:28.665Z,34.70
2018-08-13T06:36:28.667Z,23.50
2018-08-13T06:37:28.676Z,24.80
2018-08-13T06:38:28.692Z,22.60
2018-08-13T06:39:28.859Z,23.70
2018-08-13T06:40:28.708Z,25.50
2018-08-13T06:41:28.723Z,26.30
2018-08-13T06:42:28.722Z,25.90
2018-08-13T06:43:28.737Z,26.20
2018-08-13T06:44:28.895Z,28.10
2018-08-13T06:45:28.733Z,31.30
2018-08-13T06:46:28.757Z,28.60
2018-08-13T06:47:28.775Z,33.10
2018-08-13T06:48:28.788Z,32.50
2018-08-13T06:49:28.919Z,36.90
2018-08-13T06:50:28.795Z,37.70
2018-08-13T06:51:28.806Z,38.20
2018-08-13T06:52:28.796Z,34.50
2018-08-13T06:53:28.826Z,38.50
2018-08-13T06:54:28.979Z,39.80
2018-08-13T06:55:28.838Z,39.80
2018-08-13T06:56:28.856Z,42.90
2018-08-13T06:57:28.856Z,41.00
2018-08-13T06:58:28.868Z,42.10
2018-08-13T06:59:29.129Z,38.60
2018-08-13T07:00:28.881Z,39.00
2018-08-13T07:01:28.890Z,44.00
2018-08-13T07:02:28.901Z,42.70
2018-08-13T07:03:28.896Z,46.70
2018-08-13T07:04:29.072Z,45.10
2018-08-13T07:05:28.939Z,41.20
2018-08-13T07:06:28.944Z,38.60
2018-08-13T07:07:28.947Z,42.40
2018-08-13T07:08:28.952Z,43.80
2018-08-13T07:09:29.128Z,46.50
2018-08-13T07:10:28.975Z,39.40
2018-08-13T07:11:28.985Z,42.90
2018-08-13T07:12:28.999Z,46.60
2018-08-13T07:13:28.997Z,41.80
2018-08-13T07:14:29.364Z,45.70
2018-08-13T07:15:28.997Z,43.70
2018-08-13T07:16:29.033Z,44.70
2018-08-13T07:17:29.033Z,61.80
2018-08-13T07:18:29.054Z,50.10
2018-08-13T07:19:29.035Z,52.50
2018-08-13T07:20:29.234Z,47.80
2018-08-13T07:21:29.275Z,45.40
2018-08-13T07:22:29.258Z,48.00
2018-08-13T07:23:29.495Z,49.00
2018-08-13T07:24:29.078Z,60.00
2018-08-13T07:25:29.253Z,53.70
2018-08-13T07:26:29.118Z,53.00
2018-08-13T07:27:29.930Z,55.20
2018-08-13T07:28:29.135Z,51.20
2018-08-13T07:29:29.142Z,59.60
2018-08-13T07:30:29.147Z,55.80
2018-08-13T07:31:29.404Z,48.30
2018-08-13T07:32:29.346Z,50.00
2018-08-13T07:33:29.233Z,51.80
2018-08-13T07:34:29.188Z,52.20
2018-08-13T07:35:29.193Z,49.50
2018-08-13T07:36:29.200Z,51.00
2018-08-13T07:37:29.460Z,50.20
2018-08-13T07:38:29.226Z,53.30
2018-08-13T07:39:29.329Z,48.20
2018-08-13T07:40:29.239Z,52.20
2018-08-13T07:41:29.229Z,51.70
2018-08-13T07:42:29.408Z,54.20
2018-08-13T07:43:29.247Z,50.50
2018-08-13T07:44:29.273Z,55.10
2018-08-13T07:45:29.342Z,50.90
2018-08-13T07:46:29.332Z,50.00
2018-08-13T07:47:29.448Z,48.00
2018-08-13T07:48:29.318Z,46.70
2018-08-13T07:49:29.323Z,44.30
2018-08-13T07:50:29.333Z,41.10
2018-08-13T07:51:29.341Z,45.40
2018-08-13T07:52:29.493Z,43.60
2018-08-13T07:53:29.353Z,44.50
2018-08-13T07:54:29.355Z,44.70
2018-08-13T07:55:29.573Z,39.40
2018-08-13T07:56:29.361Z,41.40
2018-08-13T07:57:29.515Z,43.60
2018-08-13T07:58:29.398Z,43.50
2018-08-13T07:59:29.396Z,49.10
2018-08-13T08:00:29.419Z,45.90
2018-08-13T08:01:29.632Z,46.10
2018-08-13T08:02:29.584Z,43.60
2018-08-13T08:03:29.436Z,40.90
2018-08-13T08:04:29.451Z,54.50
2018-08-13T08:05:29.662Z,48.40
2018-08-13T08:06:29.473Z,40.50
2018-08-13T08:07:29.627Z,40.30
2018-08-13T08:08:29.467Z,47.30
2018-08-13T08:09:29.695Z,45.60
2018-08-13T08:10:29.487Z,51.30
2018-08-13T08:11:29.723Z,50.80
2018-08-13T08:12:29.672Z,54.00
2018-08-13T08:13:29.541Z,54.60
2018-08-13T08:14:29.544Z,58.50
2018-08-13T08:15:29.551Z,48.10
2018-08-13T08:16:29.769Z,43.10
2018-08-13T08:17:29.720Z,46.00
2018-08-13T08:18:29.581Z,48.20
2018-08-13T08:19:29.587Z,45.80
2018-08-13T08:20:29.597Z,51.50
2018-08-13T08:21:29.751Z,55.40
2018-08-13T08:22:29.767Z,52.80
2018-08-13T08:23:29.630Z,44.40
2018-08-13T08:24:29.634Z,62.80
2018-08-13T08:25:29.640Z,65.60
2018-08-13T08:26:29.652Z,54.70
2018-08-13T08:27:29.800Z,50.00
2018-08-13T08:28:30.075Z,46.40
2018-08-13T08:29:29.659Z,43.30
2018-08-13T08:30:29.893Z,50.60
2018-08-13T08:31:29.684Z,50.40
2018-08-13T08:32:29.862Z,46.40
2018-08-13T08:33:29.715Z,51.30
2018-08-13T08:34:30.110Z,49.30
2018-08-13T08:35:29.714Z,56.30
2018-08-13T08:36:29.948Z,58.40
2018-08-13T08:37:29.903Z,56.20
2018-08-13T08:38:29.750Z,77.20
2018-08-13T08:39:29.777Z,76.70
2018-08-13T08:40:29.848Z,80.40
2018-08-13T08:41:29.793Z,72.00
2018-08-13T08:42:29.953Z,68.40
2018-08-13T08:43:29.807Z,66.00
2018-08-13T08:44:29.823Z,63.00
2018-08-13T08:45:29.833Z,63.90
2018-08-13T08:46:29.834Z,68.60
2018-08-13T08:47:30.018Z,67.60
2018-08-13T08:48:29.858Z,72.90
2018-08-13T08:49:29.848Z,62.20
2018-08-13T08:50:29.852Z,65.80
2018-08-13T08:51:29.889Z,56.90
2018-08-13T08:52:30.183Z,62.50
2018-08-13T08:53:29.909Z,57.20
2018-08-13T08:54:29.900Z,54.60
2018-08-13T08:55:29.926Z,53.60
2018-08-13T08:56:29.935Z,51.20
2018-08-13T08:57:30.093Z,52.70
2018-08-13T08:58:29.959Z,56.70
2018-08-13T08:59:29.979Z,49.10
2018-08-13T09:00:29.958Z,59.40
2018-08-13T09:01:29.977Z,57.60
2018-08-13T09:02:30.142Z,55.90
2018-08-13T09:03:30.003Z,56.40
2018-08-13T09:04:30.009Z,65.60
2018-08-13T09:05:30.019Z,56.20
2018-08-13T09:06:30.024Z,52.30
2018-08-13T09:07:30.187Z,53.50
2018-08-13T09:08:30.046Z,57.10
2018-08-13T09:09:30.053Z,51.30
2018-08-13T09:10:30.064Z,53.40
2018-08-13T09:11:30.079Z,48.60
2018-08-13T09:12:30.237Z,57.60
2018-08-13T09:13:30.095Z,53.00
2018-08-13T09:14:30.108Z,46.30
2018-08-13T09:15:30.118Z,45.10
2018-08-13T09:16:30.124Z,39.90
2018-08-13T09:17:30.129Z,41.20
2018-08-13T09:18:30.294Z,40.50
2018-08-13T09:19:30.158Z,36.10
2018-08-13T09:20:30.165Z,34.60
2018-08-13T09:21:30.176Z,33.30
2018-08-13T09:22:30.187Z,30.70
2018-08-13T09:23:30.173Z,26.50
2018-08-13T09:24:30.363Z,28.20
2018-08-13T09:25:30.207Z,30.60
2018-08-13T09:26:30.212Z,30.30
2018-08-13T09:27:30.216Z,29.20
2018-08-13T09:28:30.242Z,26.40
2018-08-13T09:29:30.403Z,30.30
2018-08-13T09:30:30.260Z,38.00
2018-08-13T09:31:30.271Z,32.90
2018-08-13T09:32:30.283Z,33.60
2018-08-13T09:33:30.288Z,44.20
2018-08-13T09:34:30.456Z,39.00
2018-08-13T09:35:30.313Z,35.60
2018-08-13T09:36:30.354Z,33.60
2018-08-13T09:37:30.333Z,35.50
2018-08-13T09:38:30.346Z,33.70
2018-08-13T09:39:30.503Z,32.50
2018-08-13T09:40:30.365Z,35.50
2018-08-13T09:41:30.354Z,38.80
2018-08-13T09:42:30.365Z,33.80
2018-08-13T09:43:30.392Z,37.80
2018-08-13T09:44:30.532Z,38.20
2018-08-13T09:45:30.410Z,49.50
2018-08-13T09:46:30.426Z,38.00
2018-08-13T09:47:30.429Z,44.20
2018-08-13T09:48:30.445Z,37.20
2018-08-13T09:49:30.614Z,33.10
2018-08-13T09:50:30.466Z,40.10
2018-08-13T09:51:30.477Z,36.70
2018-08-13T09:52:30.484Z,36.70
2018-08-13T09:53:30.488Z,27.00
2018-08-13T09:54:30.855Z,25.80
2018-08-13T09:55:30.526Z,28.60
2018-08-13T09:56:30.524Z,28.30
2018-08-13T09:57:30.541Z,25.30
2018-08-13T09:58:30.548Z,25.30
2018-08-13T09:59:30.707Z,26.70
2018-08-13T10:00:30.764Z,26.70
2018-08-13T10:01:30.573Z,32.20
2018-08-13T10:02:30.774Z,27.20
2018-08-13T10:03:30.584Z,34.80
2018-08-13T10:04:30.761Z,31.00
2018-08-13T10:05:30.612Z,30.30
2018-08-13T10:06:31.229Z,29.40
2018-08-13T10:07:30.632Z,34.20
2018-08-13T10:08:30.848Z,34.10
2018-08-13T10:09:30.791Z,27.10
2018-08-13T10:10:30.644Z,25.60
2018-08-13T10:11:30.674Z,28.60
2018-08-13T10:12:30.893Z,29.20
2018-08-13T10:13:30.700Z,30.20
2018-08-13T10:14:30.859Z,32.10
2018-08-13T10:15:30.705Z,29.20
2018-08-13T10:16:30.731Z,33.00
2018-08-13T10:17:30.761Z,34.30
2018-08-13T10:18:30.754Z,35.00
2018-08-13T10:19:30.911Z,25.40
2018-08-13T10:20:30.996Z,25.90
2018-08-13T10:21:31.187Z,24.00
2018-08-13T10:22:30.797Z,22.90
2018-08-13T10:23:31.187Z,23.50
2018-08-13T10:24:30.916Z,24.50
2018-08-13T10:25:30.803Z,25.80
2018-08-13T10:26:30.814Z,28.80
2018-08-13T10:27:31.255Z,33.90
2018-08-13T10:28:30.858Z,24.00
2018-08-13T10:29:31.213Z,24.10
2018-08-13T10:30:30.872Z,26.20
2018-08-13T10:31:30.892Z,35.50
2018-08-13T10:32:30.901Z,39.00
2018-08-13T10:33:30.894Z,36.40
2018-08-13T10:34:30.902Z,34.50
2018-08-13T10:35:31.080Z,35.40
2018-08-13T10:36:30.939Z,33.20
2018-08-13T10:37:31.006Z,38.20
2018-08-13T10:38:30.948Z,29.10
2018-08-13T10:39:30.973Z,33.40
2018-08-13T10:40:31.134Z,34.60
2018-08-13T10:41:30.993Z,18.40
2018-08-13T10:42:31.006Z,19.60
2018-08-13T10:43:31.037Z,21.00
2018-08-13T10:44:31.026Z,20.40
2018-08-13T10:45:31.392Z,29.30
2018-08-13T10:46:31.034Z,30.70
2018-08-13T10:47:31.057Z,30.10
2018-08-13T10:48:31.068Z,26.00
2018-08-13T10:49:31.105Z,23.20
2018-08-13T10:50:31.096Z,25.00
2018-08-13T10:51:31.253Z,25.30
2018-08-13T10:52:31.115Z,21.60
2018-08-13T10:53:31.122Z,24.10
2018-08-13T10:54:31.135Z,22.90
2018-08-13T10:55:31.151Z,17.10
2018-08-13T10:56:31.147Z,21.00
2018-08-13T10:57:31.303Z,19.80
2018-08-13T10:58:31.191Z,15.80
2018-08-13T10:59:31.177Z,20.40
2018-08-13T11:00:31.202Z,20.90
2018-08-13T11:01:31.196Z,16.90
2018-08-13T11:02:31.787Z,16.60
2018-08-13T11:03:31.242Z,22.80
2018-08-13T11:04:31.247Z,18.10
2018-08-13T11:05:31.262Z,27.00
2018-08-13T11:06:32.079Z,35.20
2018-08-13T11:07:31.528Z,35.60
2018-08-13T11:08:31.295Z,26.80
2018-08-13T11:09:31.303Z,26.70
2018-08-13T11:10:31.317Z,28.50
2018-08-13T11:11:31.327Z,27.20
2018-08-13T11:12:31.469Z,22.10
2018-08-13T11:13:31.445Z,20.00
2018-08-13T11:14:31.340Z,21.60
2018-08-13T11:15:31.368Z,21.40
2018-08-13T11:16:31.585Z,28.40
2018-08-13T11:17:31.494Z,23.10
2018-08-13T11:18:31.409Z,27.70
2018-08-13T11:19:31.416Z,23.30
2018-08-13T11:20:31.437Z,15.20
2018-08-13T11:21:31.665Z,19.80
2018-08-13T11:22:31.606Z,14.80
2018-08-13T11:23:31.467Z,14.60
2018-08-13T11:24:31.480Z,18.20
2018-08-13T11:25:31.547Z,15.70
2018-08-13T11:26:31.502Z,18.10
2018-08-13T11:27:31.661Z,17.90
2018-08-13T11:28:32.173Z,16.40
2018-08-13T11:29:31.513Z,16.20
2018-08-13T11:30:31.948Z,24.20
2018-08-13T11:31:31.563Z,21.60
2018-08-13T11:32:31.721Z,15.40
2018-08-13T11:33:31.556Z,16.30
2018-08-13T11:34:31.593Z,16.40
2018-08-13T11:35:31.800Z,20.80
2018-08-13T11:36:32.021Z,22.70
2018-08-13T11:37:31.858Z,25.00
2018-08-13T11:38:31.632Z,24.00
2018-08-13T11:39:31.646Z,17.70
2018-08-13T11:40:31.717Z,26.10
2018-08-13T11:41:31.668Z,26.50
2018-08-13T11:42:31.833Z,23.20
2018-08-13T11:43:31.675Z,21.90
2018-08-13T11:44:31.907Z,21.80
2018-08-13T11:45:31.701Z,17.90
2018-08-13T11:46:31.729Z,19.80
2018-08-13T11:47:31.993Z,15.90
2018-08-13T11:48:31.737Z,16.80
2018-08-13T11:49:31.764Z,21.30
2018-08-13T11:50:31.983Z,21.40
2018-08-13T11:51:31.795Z,25.30
2018-08-13T11:52:31.969Z,22.30
2018-08-13T11:53:32.019Z,20.30
2018-08-13T11:54:31.816Z,22.30
2018-08-13T11:55:31.847Z,17.60
2018-08-13T11:56:31.934Z,17.90
2018-08-13T11:57:32.120Z,21.10
2018-08-13T11:58:31.877Z,20.80
2018-08-13T11:59:31.878Z,18.20
2018-08-13T12:00:31.901Z,26.20
2018-08-13T12:01:31.912Z,26.60
2018-08-13T12:02:32.026Z,26.80
2018-08-13T12:03:32.152Z,28.50
2018-08-13T12:04:31.955Z,28.40
2018-08-13T12:05:31.969Z,22.70
2018-08-13T12:06:31.974Z,25.00
2018-08-13T12:07:32.143Z,29.70
2018-08-13T12:08:32.054Z,26.10
2018-08-13T12:09:32.020Z,25.20
2018-08-13T12:10:32.034Z,23.40
2018-08-13T12:11:32.040Z,20.00
2018-08-13T12:12:32.162Z,19.10
2018-08-13T12:13:32.067Z,22.20
2018-08-13T12:14:32.089Z,20.40
2018-08-13T12:15:32.284Z,17.20
2018-08-13T12:16:32.087Z,20.40
2018-08-13T12:17:32.407Z,19.20
2018-08-13T12:18:32.135Z,17.70
2018-08-13T12:19:32.201Z,18.30
2018-08-13T12:20:32.161Z,17.20
2018-08-13T12:21:32.176Z,20.10
2018-08-13T12:22:32.287Z,30.30
2018-08-13T12:23:32.199Z,20.70
2018-08-13T12:24:32.214Z,22.00
2018-08-13T12:25:32.213Z,19.60
2018-08-13T12:26:32.283Z,23.00
2018-08-13T12:27:32.560Z,22.90
2018-08-13T12:28:32.474Z,20.40
2018-08-13T12:29:32.468Z,22.10
2018-08-13T12:30:32.295Z,16.40
2018-08-13T12:31:32.317Z,20.70
2018-08-13T12:32:32.469Z,14.80
2018-08-13T12:33:32.337Z,14.70
2018-08-13T12:34:32.356Z,15.20
2018-08-13T12:35:32.384Z,11.80
2018-08-13T12:36:32.379Z,13.00
2018-08-13T12:37:32.545Z,14.60
2018-08-13T12:38:32.391Z,14.80
2018-08-13T12:39:32.401Z,13.20
2018-08-13T12:40:32.422Z,16.90
2018-08-13T12:41:32.455Z,17.20
2018-08-13T12:42:32.621Z,18.80
2018-08-13T12:43:32.477Z,10.80
2018-08-13T12:44:32.487Z,12.70
2018-08-13T12:45:32.510Z,13.70
2018-08-13T12:46:32.722Z,11.90
2018-08-13T12:47:32.884Z,9.70
2018-08-13T12:48:32.547Z,13.90
2018-08-13T12:49:32.549Z,12.60
2018-08-13T12:50:32.580Z,8.20
2018-08-13T12:51:32.592Z,9.10
2018-08-13T12:52:32.762Z,10.00
2018-08-13T12:53:32.627Z,10.70